Time;durP1;ratioP1;P1;durP2;ratioP2;P2;SDS_P1;SDS_P2;PMS_P1;PMS_P2;Temp;Humidity;BMP_temperature;BMP_pressure;BME280_temperature;BME280_humidity;BME280_pressure;Samples;Min_cycle;Max_cycle;Signal;HPM_P1;HPM_P2
2023/01/18 00:07:01;;;;;;;;;;;-0.10;99.90;;;;;;4995922;28;20299;-84
2023/01/18 00:09:53;;;;;;;;;;;;;;;;;;;;;
2023/01/18 00:12:42;;;;;;;;;;;0.00;99.90;;;;;;4995341;28;19910;-84
2023/01/18 00:15:17;;;;;;;;;;;-0.10;99.90;;;;;;4994244;28;19914;-84
2023/01/18 00:18:21;;;;;;;;;;;;;;;;;;;;;
2023/01/18 00:21:11;;;;;;;;;;;;;;;;;;;;;
2023/01/18 00:23:56;;;;;;;;;;;;;;;;;;;;;
2023/01/18 00:32:57;;;;;;;;;;;-0.10;99.90;;;;;;4995861;28;19917;-84
2023/01/18 00:36:03;;;;;;;;;;;;;;;;;;;;;
2023/01/18 00:39:01;;;;;;;;;;;-0.10;99.90;;;;;;4995090;28;19909;-84
2023/01/18 00:44:53;;;;;;;;;;;-0.10;99.90;;;;;;4984602;28;19941;-85
2023/01/18 00:47:37;;;;;;;;;;;-0.10;99.90;;;;;;4995338;28;20315;-84
2023/01/18 00:50:35;;;;;;;;;;;-0.10;99.90;;;;;;4993877;28;20257;-84
2023/01/18 00:53:36;;;;;;;;;;;;;;;;;;;;;
2023/01/18 00:56:44;;;;;;;;;;;;;;;;;;;;;
2023/01/18 00:59:28;;;;;;;;;;;-0.10;99.90;;;;;;4994544;28;19910;-84
2023/01/18 01:08:31;;;;;;;;;;;-0.10;99.90;;;;;;4994454;28;19916;-84
2023/01/18 01:11:20;;;;;;;;;;;-0.10;99.90;;;;;;5009841;28;19977;-84
2023/01/18 01:32:23;;;;;;;;;;;-0.20;99.90;;;;;;4993606;28;19914;-84
2023/01/18 01:38:08;;;;;;;;;;;-0.20;99.90;;;;;;4973261;28;19922;-84
2023/01/18 01:40:58;;;;;;;;;;;-0.20;99.90;;;;;;4992959;28;19910;-85
2023/01/18 01:43:43;;;;;;;;;;;-0.20;99.90;;;;;;4993245;28;19916;-84
2023/01/18 01:49:51;;;;;;;;;;;-0.20;99.90;;;;;;4972334;28;20337;-84
2023/01/18 01:52:44;;;;;;;;;;;-0.20;99.90;;;;;;4965592;28;19910;-84
2023/01/18 01:55:40;;;;;;;;;;;-0.20;99.90;;;;;;4988198;28;19917;-84
2023/01/18 01:58:40;;;;;;;;;;;-0.20;99.90;;;;;;4994522;28;20005;-85
2023/01/18 02:01:23;;;;;;;;;;;-0.30;99.90;;;;;;5009312;28;19914;-85
2023/01/18 02:04:09;;;;;;;;;;;-0.20;99.90;;;;;;4995452;28;19910;-85
2023/01/18 02:16:15;;;;;;;;;;;-0.30;99.90;;;;;;4993853;28;19920;-85
2023/01/18 02:19:15;;;;;;;;;;;-0.30;99.90;;;;;;4993205;28;19996;-85
2023/01/18 02:22:09;;;;;;;;;;;-0.30;99.90;;;;;;4994935;28;19914;-85
2023/01/18 02:24:50;;;;;;;;;;;-0.40;99.90;;;;;;4994823;28;19910;-85
2023/01/18 02:27:39;;;;;;;;;;;;;;;;;;;;;
2023/01/18 02:30:30;;;;;;;;;;;;;;;;;;;;;
2023/01/18 02:33:11;;;;;;;;;;;-0.40;99.90;;;;;;4994303;28;19910;-85
2023/01/18 02:35:59;;;;;;;;;;;-0.40;99.90;;;;;;4993872;28;20371;-84
2023/01/18 02:38:47;;;;;;;;;;;;;;;;;;;;;
2023/01/18 02:41:24;;;;;;;;;;;-0.40;99.90;;;;;;4994404;28;19913;-84
2023/01/18 05:41:43;;;;;;;;;;;-0.60;99.90;;;;;;5061272;22;20010;-89
2023/01/18 05:44:09;;;;;;;;;;;-0.60;99.90;;;;;;5035910;28;19909;-89
2023/01/18 05:46:35;;;;;;;;;;;-0.60;99.90;;;;;;5035812;28;19909;-90
2023/01/18 05:49:00;;;;;;;;;;;-0.60;99.90;;;;;;5035614;28;19967;-91
2023/01/18 05:51:26;;;;;;;;;;;-0.60;99.90;;;;;;5028224;28;19919;-90
2023/01/18 05:53:51;;;;;;;;;;;-0.70;99.90;;;;;;5020934;28;19913;-90
2023/01/18 05:56:17;;;;;;;;;;;-0.70;99.90;;;;;;5015720;28;19919;-90
2023/01/18 05:58:42;;;;;;;;;;;-0.70;99.90;;;;;;5015852;28;19915;-90
2023/01/18 06:01:11;;;;;;;;;;;-0.70;99.90;;;;;;5012218;28;19913;-88
2023/01/18 06:03:37;;;;;;;;;;;-0.70;99.90;;;;;;4995768;28;19936;-90
2023/01/18 06:06:19;;;;;;;;;;;;;;;;;;;;;
2023/01/18 06:08:44;;;;;;;;;;;-0.70;99.90;;;;;;5013810;28;20370;-91
2023/01/18 06:11:10;;;;;;;;;;;-0.80;99.90;;;;;;4995281;28;20008;-90
2023/01/18 06:13:35;;;;;;;;;;;-0.80;99.90;;;;;;4995372;28;19913;-90
2023/01/18 06:16:01;;;;;;;;;;;-0.70;99.90;;;;;;4995379;28;19924;-91
2023/01/18 06:18:28;;;;;;;;;;;-0.80;99.90;;;;;;5013379;28;20382;-90
2023/01/18 06:20:58;;;;;;;;;;;-0.80;99.90;;;;;;4995316;28;20366;-91
2023/01/18 06:23:23;;;;;;;;;;;-0.70;99.90;;;;;;5001073;28;20417;-91
2023/01/18 06:25:49;;;;;;;;;;;-0.80;99.90;;;;;;5002136;28;19914;-90
2023/01/18 06:28:15;;;;;;;;;;;-0.80;99.90;;;;;;5001697;28;19921;-90
2023/01/18 06:30:41;;;;;;;;;;;-0.80;99.90;;;;;;5001623;28;19909;-90
2023/01/18 06:33:07;;;;;;;;;;;-0.90;99.90;;;;;;5001737;28;19917;-90
2023/01/18 06:35:33;;;;;;;;;;;-0.90;99.90;;;;;;5001716;28;19910;-89
2023/01/18 06:37:59;;;;;;;;;;;-0.90;99.90;;;;;;5002009;28;19914;-89
2023/01/18 06:40:24;;;;;;;;;;;-0.90;99.90;;;;;;5001498;28;20383;-90
2023/01/18 06:42:50;;;;;;;;;;;-0.90;99.90;;;;;;5001722;28;19963;-90
2023/01/18 06:45:18;;;;;;;;;;;-0.90;99.90;;;;;;5001641;28;19909;-89
2023/01/18 06:47:43;;;;;;;;;;;-1.00;99.90;;;;;;5001611;28;20334;-89
2023/01/18 06:50:09;;;;;;;;;;;-1.00;99.90;;;;;;5002036;28;19909;-88
2023/01/18 06:52:35;;;;;;;;;;;-1.00;99.90;;;;;;5001498;28;19916;-89
2023/01/18 06:55:00;;;;;;;;;;;-1.00;99.90;;;;;;5001562;28;19915;-89
2023/01/18 06:57:26;;;;;;;;;;;-1.00;99.90;;;;;;5001570;28;19919;-89
2023/01/18 06:59:52;;;;;;;;;;;-1.00;99.90;;;;;;5001412;28;19968;-89
2023/01/18 07:02:18;;;;;;;;;;;-1.00;99.90;;;;;;5001757;28;19909;-89
2023/01/18 07:04:44;;;;;;;;;;;-1.00;99.90;;;;;;5001682;28;19956;-88
2023/01/18 07:07:10;;;;;;;;;;;-1.00;99.90;;;;;;5001542;28;19979;-89
2023/01/18 07:09:38;;;;;;;;;;;-1.00;99.90;;;;;;5001322;28;19909;-89
2023/01/18 07:12:04;;;;;;;;;;;-1.00;99.90;;;;;;5001213;28;19910;-89
2023/01/18 07:14:29;;;;;;;;;;;-1.00;99.90;;;;;;5001398;28;19913;-89
2023/01/18 07:16:55;;;;;;;;;;;-1.10;99.90;;;;;;5001350;28;19920;-88
2023/01/18 07:19:20;;;;;;;;;;;-1.00;99.90;;;;;;5001225;28;19910;-88
2023/01/18 07:21:48;;;;;;;;;;;-1.00;99.90;;;;;;5001151;28;19909;-89
2023/01/18 07:24:14;;;;;;;;;;;-1.00;99.90;;;;;;5001431;28;20291;-88
2023/01/18 07:26:39;;;;;;;;;;;-1.00;99.90;;;;;;5001445;28;19910;-89
2023/01/18 07:29:05;;;;;;;;;;;-1.00;99.90;;;;;;5001445;28;20375;-89
2023/01/18 07:31:30;;;;;;;;;;;-1.00;99.90;;;;;;5001062;28;19916;-88
2023/01/18 07:33:56;;;;;;;;;;;-1.10;99.90;;;;;;4998255;28;20392;-89
2023/01/18 07:36:22;;;;;;;;;;;-1.00;99.90;;;;;;4998104;28;19924;-88
2023/01/18 07:38:48;;;;;;;;;;;-1.00;99.90;;;;;;4998282;28;19971;-88
2023/01/18 07:41:14;;;;;;;;;;;-1.00;99.90;;;;;;4997802;28;19917;-89
2023/01/18 07:43:40;;;;;;;;;;;-1.00;99.90;;;;;;4997972;28;20005;-88
2023/01/18 07:46:07;;;;;;;;;;;-0.90;99.90;;;;;;4998021;28;20012;-88
2023/01/18 07:48:32;;;;;;;;;;;-0.90;99.90;;;;;;4997951;28;20436;-89
2023/01/18 07:50:59;;;;;;;;;;;-0.90;99.90;;;;;;4997610;28;20012;-89
2023/01/18 07:53:25;;;;;;;;;;;-0.90;99.90;;;;;;5015433;28;19932;-90
2023/01/18 07:55:50;;;;;;;;;;;-0.90;99.90;;;;;;4998001;28;20386;-89
2023/01/18 07:58:17;;;;;;;;;;;-0.80;99.90;;;;;;4997813;28;19968;-89
2023/01/18 08:00:42;;;;;;;;;;;-0.80;99.90;;;;;;4997961;28;19948;-89
2023/01/18 08:03:13;;;;;;;;;;;-0.80;99.90;;;;;;4997842;28;19976;-89
2023/01/18 08:05:39;;;;;;;;;;;-0.70;99.90;;;;;;4997694;28;20364;-88
2023/01/18 08:08:08;;;;;;;;;;;-0.70;99.90;;;;;;5015164;28;19964;-88
2023/01/18 08:10:34;;;;;;;;;;;-0.70;99.90;;;;;;4997576;28;20032;-89
2023/01/18 08:13:00;;;;;;;;;;;-0.60;99.90;;;;;;4997370;28;19956;-88
2023/01/18 08:15:25;;;;;;;;;;;-0.60;99.90;;;;;;4997737;28;19909;-88
2023/01/18 08:17:51;;;;;;;;;;;-0.50;99.90;;;;;;4997824;28;19975;-88
2023/01/18 08:20:16;;;;;;;;;;;-0.50;99.90;;;;;;4997465;28;19968;-88
2023/01/18 08:22:53;;;;;;;;;;;-0.50;99.90;;;;;;4997381;28;19932;-89
2023/01/18 08:25:18;;;;;;;;;;;-0.40;99.90;;;;;;4997479;28;19909;-88
2023/01/18 08:27:44;;;;;;;;;;;-0.40;99.90;;;;;;4997410;28;19916;-89
2023/01/18 08:30:12;;;;;;;;;;;-0.30;99.90;;;;;;4997386;28;20279;-88
2023/01/18 08:32:38;;;;;;;;;;;-0.30;99.90;;;;;;4997534;28;20012;-89
2023/01/18 08:35:06;;;;;;;;;;;-0.30;99.90;;;;;;4997061;28;19941;-89
2023/01/18 08:37:32;;;;;;;;;;;-0.20;99.90;;;;;;4997165;28;20016;-89
2023/01/18 08:39:58;;;;;;;;;;;-0.20;99.90;;;;;;4996907;28;20009;-89
2023/01/18 08:42:23;;;;;;;;;;;-0.10;99.90;;;;;;4997147;28;19909;-89
2023/01/18 08:44:49;;;;;;;;;;;-0.10;99.90;;;;;;4996632;28;19909;-88
2023/01/18 08:47:14;;;;;;;;;;;0.00;99.90;;;;;;4997230;28;19916;-89
2023/01/18 08:49:40;;;;;;;;;;;0.10;99.90;;;;;;4997132;28;20383;-89
2023/01/18 08:52:06;;;;;;;;;;;0.20;99.90;;;;;;4997010;28;20203;-88
2023/01/18 08:54:31;;;;;;;;;;;0.20;99.90;;;;;;5014831;28;19913;-89
2023/01/18 08:56:57;;;;;;;;;;;0.30;99.90;;;;;;4997081;28;19920;-89
2023/01/18 08:59:22;;;;;;;;;;;0.30;99.90;;;;;;5014835;28;20290;-89
2023/01/18 09:01:48;;;;;;;;;;;0.40;99.90;;;;;;4998285;28;20035;-89
2023/01/18 09:04:14;;;;;;;;;;;0.50;99.90;;;;;;5016045;28;19910;-89
2023/01/18 09:06:39;;;;;;;;;;;0.50;99.90;;;;;;5001914;28;19956;-88
2023/01/18 09:09:04;;;;;;;;;;;0.60;99.90;;;;;;5009431;28;19913;-89
2023/01/18 09:11:30;;;;;;;;;;;0.70;99.90;;;;;;5017595;28;19909;-89
2023/01/18 09:13:57;;;;;;;;;;;0.70;99.90;;;;;;4998046;28;19910;-89
2023/01/18 09:16:23;;;;;;;;;;;0.80;99.90;;;;;;5014658;28;19982;-89
2023/01/18 09:18:49;;;;;;;;;;;0.90;99.90;;;;;;4996831;28;19988;-89
2023/01/18 09:21:16;;;;;;;;;;;1.00;99.90;;;;;;4996128;28;19964;-88
2023/01/18 09:23:42;;;;;;;;;;;1.10;99.90;;;;;;4996249;28;20392;-88
2023/01/18 09:26:09;;;;;;;;;;;1.30;99.90;;;;;;4996360;28;19916;-89
2023/01/18 09:28:34;;;;;;;;;;;1.40;99.90;;;;;;4996245;28;19956;-89
2023/01/18 09:31:04;;;;;;;;;;;1.50;99.90;;;;;;4995758;28;19913;-88
2023/01/18 09:33:30;;;;;;;;;;;1.70;99.90;;;;;;4996027;28;19921;-89
2023/01/18 09:36:02;;;;;;;;;;;1.80;99.90;;;;;;4996038;28;19956;-89
2023/01/18 09:38:31;;;;;;;;;;;2.10;99.90;;;;;;4995775;28;19996;-88
2023/01/18 09:40:57;;;;;;;;;;;2.40;99.90;;;;;;4995694;28;19987;-89
2023/01/18 09:43:26;;;;;;;;;;;2.60;99.90;;;;;;4995844;28;19917;-89
2023/01/18 09:45:52;;;;;;;;;;;2.90;99.90;;;;;;4996032;28;19917;-88
2023/01/18 09:48:28;;;;;;;;;;;3.00;99.90;;;;;;4995807;28;20000;-89
2023/01/18 09:50:55;;;;;;;;;;;3.10;99.90;;;;;;4995499;28;19917;-88
2023/01/18 09:53:39;;;;;;;;;;;3.10;99.90;;;;;;4995707;28;19916;-89
2023/01/18 09:56:26;;;;;;;;;;;3.20;99.90;;;;;;4995581;28;19920;-88
2023/01/18 09:59:01;;;;;;;;;;;3.30;99.90;;;;;;4995427;28;19913;-89
2023/01/18 10:01:28;;;;;;;;;;;3.30;99.90;;;;;;4995298;28;20322;-88
2023/01/18 10:04:02;;;;;;;;;;;3.20;99.90;;;;;;5013111;28;19910;-89
2023/01/18 10:06:42;;;;;;;;;;;3.30;99.90;;;;;;4995613;28;20291;-88
2023/01/18 10:09:27;;;;;;;;;;;3.40;99.90;;;;;;4995542;28;19995;-88
2023/01/18 10:11:58;;;;;;;;;;;3.40;99.90;;;;;;4994384;28;19909;-89
2023/01/18 10:14:43;;;;;;;;;;;3.40;99.90;;;;;;5013007;28;19909;-89
2023/01/18 10:17:16;;;;;;;;;;;3.50;99.90;;;;;;4995506;28;19956;-88
2023/01/18 10:19:42;;;;;;;;;;;3.70;99.90;;;;;;4995497;28;19932;-88
2023/01/18 10:22:15;;;;;;;;;;;3.80;99.90;;;;;;4995219;28;19910;-88
2023/01/18 10:24:44;;;;;;;;;;;3.90;99.90;;;;;;4995304;28;20044;-88
2023/01/18 10:27:30;;;;;;;;;;;3.90;99.90;;;;;;4995405;28;19944;-88
2023/01/18 10:30:05;;;;;;;;;;;3.90;99.90;;;;;;4995334;28;19909;-88
2023/01/18 10:32:31;;;;;;;;;;;4.00;99.90;;;;;;4994994;28;20008;-88
2023/01/18 10:34:57;;;;;;;;;;;4.00;99.90;;;;;;4995212;28;19909;-88
2023/01/18 10:37:36;;;;;;;;;;;4.10;99.90;;;;;;4995203;28;19913;-88
2023/01/18 10:40:11;;;;;;;;;;;4.10;99.90;;;;;;4995019;28;19949;-88
2023/01/18 10:42:46;;;;;;;;;;;4.00;99.90;;;;;;4994954;28;19910;-87
2023/01/18 10:45:18;;;;;;;;;;;4.10;99.90;;;;;;5012680;28;19961;-88
2023/01/18 10:47:45;;;;;;;;;;;4.10;99.90;;;;;;4995077;28;19917;-88
2023/01/18 10:50:12;;;;;;;;;;;4.20;99.90;;;;;;4994995;28;19916;-88
2023/01/18 10:52:37;;;;;;;;;;;4.30;99.90;;;;;;4995100;28;19909;-88
2023/01/18 10:55:06;;;;;;;;;;;4.30;99.90;;;;;;5012634;28;19910;-88
2023/01/18 10:57:41;;;;;;;;;;;4.40;99.90;;;;;;5012638;28;19921;-88
2023/01/18 11:00:20;;;;;;;;;;;4.40;99.90;;;;;;4995006;28;19910;-87
2023/01/18 11:02:46;;;;;;;;;;;4.40;99.90;;;;;;4994694;28;19916;-88
2023/01/18 11:05:18;;;;;;;;;;;4.60;99.90;;;;;;4994936;28;19913;-88
2023/01/18 11:07:43;;;;;;;;;;;4.70;99.90;;;;;;4995295;28;20268;-88
2023/01/18 11:10:22;;;;;;;;;;;4.80;99.90;;;;;;4998545;28;19963;-88
2023/01/18 11:12:51;;;;;;;;;;;4.80;99.90;;;;;;5016001;28;19910;-88
2023/01/18 11:15:16;;;;;;;;;;;4.80;99.90;;;;;;4998527;28;19917;-88
2023/01/18 11:17:41;;;;;;;;;;;4.80;99.90;;;;;;4998541;28;19914;-87
2023/01/18 11:20:18;;;;;;;;;;;4.90;99.90;;;;;;4998344;28;19913;-88
2023/01/18 11:22:53;;;;;;;;;;;5.00;99.90;;;;;;4998279;28;19999;-88
2023/01/18 11:25:19;;;;;;;;;;;5.30;99.90;;;;;;4998463;28;19937;-88
2023/01/18 11:27:45;;;;;;;;;;;6.00;99.90;;;;;;4998288;28;20334;-88
2023/01/18 11:30:20;;;;;;;;;;;6.50;99.90;;;;;;4998316;28;19956;-88
2023/01/18 11:32:46;;;;;;;;;;;7.20;99.90;;;;;;4997911;28;19910;-86
2023/01/18 11:35:20;;;;;;;;;;;7.40;99.90;;;;;;4998106;28;19909;-87
2023/01/18 11:37:46;;;;;;;;;;;7.30;99.90;;;;;;4998160;28;19913;-88
2023/01/18 11:40:17;;;;;;;;;;;7.30;99.90;;;;;;5026013;22;19933;-84
2023/01/18 11:42:43;;;;;;;;;;;8.00;99.90;;;;;;5018097;28;19913;-84
2023/01/18 11:45:47;;;;;;;;;;;9.30;99.90;;;;;;5018950;28;19909;-83
2023/01/18 11:48:16;;;;;;;;;;;9.80;99.90;;;;;;4939414;29;20287;-84
2023/01/18 11:50:47;;;;;;;;;;;11.20;99.90;;;;;;4936759;29;19950;-83
2023/01/18 11:53:13;;;;;;;;;;;11.80;99.90;;;;;;4961100;28;19952;-84
2023/01/18 11:55:46;;;;;;;;;;;13.40;98.50;;;;;;5015757;28;19909;-84
2023/01/18 11:58:38;;;;;;;;;;;14.90;91.70;;;;;;5015598;28;20001;-84
2023/01/18 12:01:20;;;;;;;;;;;16.10;84.90;;;;;;5011292;28;19910;-83
2023/01/18 12:03:58;;;;;;;;;;;17.40;72.20;;;;;;4997634;28;19909;-84
2023/01/18 12:06:27;;;;;;;;;;;18.00;66.40;;;;;;5016569;28;19937;-81
2023/01/18 12:08:57;;;;;;;;;;;18.00;61.60;;;;;;5018433;28;20373;-81
2023/01/18 12:11:46;;;;;;;;;;;18.10;60.10;;;;;;5019108;28;19916;-81
2023/01/18 12:14:19;;;;;;;;;;;17.50;58.10;;;;;;4981057;28;19971;-81
2023/01/18 12:16:44;;;;;;;;;;;17.20;60.60;;;;;;5018407;28;19914;-81
2023/01/18 12:19:29;;;;;;;;;;;17.30;60.50;;;;;;4999355;28;19955;-81
2023/01/18 12:22:17;;;;;;;;;;;18.00;60.50;;;;;;4996851;28;19956;-84
2023/01/18 12:24:52;;;;;;;;;;;18.50;57.30;;;;;;5005004;28;19960;-84
2023/01/18 12:27:17;;;;;;;;;;;18.20;56.90;;;;;;5015122;28;20000;-84
2023/01/18 12:30:01;;;;;;;;;;;18.50;55.30;;;;;;4997396;28;20349;-84
2023/01/18 12:32:32;;;;;;;;;;;18.40;54.90;;;;;;5014755;28;19916;-84
2023/01/18 12:35:13;;;;;;;;;;;18.30;54.80;;;;;;5015095;28;19909;-84
2023/01/18 12:37:48;;;;;;;;;;;18.20;55.00;;;;;;4997529;28;20391;-84
2023/01/18 12:40:23;;;;;;;;;;;19.30;54.80;;;;;;4997224;28;20009;-83
2023/01/18 12:42:55;;;;;;;;;;;20.30;53.70;;;;;;4997055;28;19909;-83
2023/01/18 12:45:26;;;;;;;;;;;20.80;50.50;;;;;;4997620;28;20385;-84
2023/01/18 12:47:56;;;;;;;;;;;21.40;49.70;;;;;;5014717;28;20441;-84
2023/01/18 12:50:23;;;;;;;;;;;21.10;48.30;;;;;;4997228;28;20586;-84
2023/01/18 12:52:52;;;;;;;;;;;19.80;47.20;;;;;;5014269;28;20291;-84
2023/01/18 12:55:20;;;;;;;;;;;17.80;48.80;;;;;;5014358;28;19916;-84
2023/01/18 12:57:49;;;;;;;;;;;16.10;50.30;;;;;;5014282;28;19967;-83
2023/01/18 13:00:17;;;;;;;;;;;15.70;52.40;;;;;;5014283;28;19955;-83
2023/01/18 13:02:46;;;;;;;;;;;16.40;53.60;;;;;;5014018;28;20425;-83
2023/01/18 13:05:16;;;;;;;;;;;17.30;52.50;;;;;;4996521;28;20383;-84
2023/01/18 13:07:45;;;;;;;;;;;17.60;51.00;;;;;;5014632;28;20383;-83
2023/01/18 13:10:24;;;;;;;;;;;18.00;51.40;;;;;;5014181;28;19943;-84
2023/01/18 13:12:50;;;;;;;;;;;18.50;49.90;;;;;;4996188;28;19913;-84
2023/01/18 13:15:16;;;;;;;;;;;18.70;50.50;;;;;;4996391;28;19909;-83
2023/01/18 13:18:04;;;;;;;;;;;18.90;48.20;;;;;;4996244;28;20016;-83
2023/01/18 13:20:44;;;;;;;;;;;18.70;48.60;;;;;;5012366;28;20004;-84
2023/01/18 13:23:22;;;;;;;;;;;18.60;49.10;;;;;;5013826;28;19909;-84
2023/01/18 13:26:15;;;;;;;;;;;18.50;47.80;;;;;;4996222;28;19992;-84
2023/01/18 13:28:42;;;;;;;;;;;17.90;48.50;;;;;;5013752;28;19909;-83
2023/01/18 13:31:07;;;;;;;;;;;18.00;48.80;;;;;;4995246;28;19961;-84
2023/01/18 13:33:34;;;;;;;;;;;17.40;48.70;;;;;;5013209;28;19917;-83
2023/01/18 13:36:07;;;;;;;;;;;16.90;50.10;;;;;;4995908;28;19916;-84
2023/01/18 13:38:37;;;;;;;;;;;16.20;50.60;;;;;;4996144;28;19909;-84
2023/01/18 13:41:06;;;;;;;;;;;15.90;51.10;;;;;;5012930;28;19917;-83
2023/01/18 13:43:34;;;;;;;;;;;16.10;51.50;;;;;;5013480;28;19913;-83
2023/01/18 13:46:17;;;;;;;;;;;15.60;50.80;;;;;;5013169;28;19917;-83
2023/01/18 13:48:45;;;;;;;;;;;16.00;51.50;;;;;;5013162;28;19979;-83
2023/01/18 13:51:29;;;;;;;;;;;15.30;51.60;;;;;;5012920;28;20391;-83
2023/01/18 13:53:54;;;;;;;;;;;14.30;52.70;;;;;;5013192;28;20294;-83
2023/01/18 13:56:21;;;;;;;;;;;13.10;53.30;;;;;;5012990;28;19920;-83
2023/01/18 13:58:56;;;;;;;;;;;12.20;55.70;;;;;;5013062;28;19913;-83
2023/01/18 14:01:22;;;;;;;;;;;11.60;57.60;;;;;;5012635;28;19969;-83
2023/01/18 14:03:50;;;;;;;;;;;10.80;60.50;;;;;;5013038;28;19910;-83
2023/01/18 14:06:23;;;;;;;;;;;9.90;66.10;;;;;;5012943;28;19964;-83
2023/01/18 14:08:51;;;;;;;;;;;9.50;72.40;;;;;;5012908;28;19917;-83
2023/01/18 14:11:36;;;;;;;;;;;9.20;81.60;;;;;;4994980;28;19909;-83
2023/01/18 14:14:12;;;;;;;;;;;9.00;87.70;;;;;;5012861;28;20008;-83
2023/01/18 14:16:51;;;;;;;;;;;8.60;91.40;;;;;;5012762;28;19923;-83
2023/01/18 14:19:18;;;;;;;;;;;8.50;95.30;;;;;;5012982;28;20007;-82
2023/01/18 14:21:46;;;;;;;;;;;8.20;96.10;;;;;;5012530;28;19952;-83
2023/01/18 14:24:16;;;;;;;;;;;8.00;99.60;;;;;;4995295;28;20013;-83
2023/01/18 14:26:42;;;;;;;;;;;7.90;99.90;;;;;;4995326;28;19914;-83
2023/01/18 14:29:15;;;;;;;;;;;7.90;99.90;;;;;;5012855;28;19910;-82
2023/01/18 14:31:48;;;;;;;;;;;7.70;99.90;;;;;;5012423;28;19909;-83
2023/01/18 14:34:29;;;;;;;;;;;7.60;99.90;;;;;;5012864;28;20279;-83
2023/01/18 14:36:57;;;;;;;;;;;7.60;99.90;;;;;;4995118;28;19917;-83
2023/01/18 14:39:23;;;;;;;;;;;7.60;99.90;;;;;;4995241;28;19909;-83
2023/01/18 14:41:50;;;;;;;;;;;7.50;99.90;;;;;;4994695;28;19928;-83
2023/01/18 14:44:20;;;;;;;;;;;7.40;99.90;;;;;;4999445;28;19910;-83
2023/01/18 14:46:47;;;;;;;;;;;7.40;99.90;;;;;;4999026;28;19914;-83
2023/01/18 14:49:15;;;;;;;;;;;7.40;99.90;;;;;;4998959;28;19917;-83
2023/01/18 14:51:46;;;;;;;;;;;7.30;99.90;;;;;;5016225;28;19957;-83
2023/01/18 14:54:15;;;;;;;;;;;7.30;99.90;;;;;;5016560;28;20056;-83
2023/01/18 14:56:41;;;;;;;;;;;7.10;99.90;;;;;;4999046;28;20504;-83
2023/01/18 14:59:23;;;;;;;;;;;6.80;99.90;;;;;;5016424;28;20247;-83
2023/01/18 15:01:50;;;;;;;;;;;6.80;99.90;;;;;;5015929;28;19971;-83
2023/01/18 15:04:17;;;;;;;;;;;6.60;99.90;;;;;;4998940;28;20367;-83
2023/01/18 15:06:44;;;;;;;;;;;6.50;99.90;;;;;;5016739;28;19909;-83
2023/01/18 15:09:11;;;;;;;;;;;6.30;99.90;;;;;;5016736;28;19917;-83
2023/01/18 15:11:37;;;;;;;;;;;6.10;99.90;;;;;;4998365;28;19909;-83
2023/01/18 15:14:06;;;;;;;;;;;6.00;99.90;;;;;;5016540;28;19909;-83
2023/01/18 15:16:32;;;;;;;;;;;5.90;99.90;;;;;;5015960;28;20385;-83
2023/01/18 15:18:57;;;;;;;;;;;5.70;99.90;;;;;;4998350;28;19921;-83
2023/01/18 15:21:25;;;;;;;;;;;5.50;99.90;;;;;;4998348;28;19909;-83
2023/01/18 15:23:53;;;;;;;;;;;5.50;99.90;;;;;;4998508;28;20287;-83
2023/01/18 15:26:32;;;;;;;;;;;5.40;99.90;;;;;;5016601;28;19913;-83
2023/01/18 15:29:04;;;;;;;;;;;5.30;99.90;;;;;;4998585;28;19910;-83
2023/01/18 15:31:29;;;;;;;;;;;5.30;99.90;;;;;;5015688;28;20272;-83
2023/01/18 15:33:56;;;;;;;;;;;5.20;99.90;;;;;;4998336;28;19917;-83
2023/01/18 15:36:21;;;;;;;;;;;5.20;99.90;;;;;;4998156;28;20337;-81
2023/01/18 15:38:47;;;;;;;;;;;5.10;99.90;;;;;;5016156;28;20052;-81
2023/01/18 15:41:13;;;;;;;;;;;5.00;99.90;;;;;;5015530;28;19964;-81
2023/01/18 15:43:40;;;;;;;;;;;4.90;99.90;;;;;;5015566;28;20386;-81
2023/01/18 15:46:07;;;;;;;;;;;4.90;99.90;;;;;;5015553;28;19909;-82
2023/01/18 15:48:37;;;;;;;;;;;4.80;99.90;;;;;;5015616;28;19909;-82
2023/01/18 15:51:04;;;;;;;;;;;4.70;99.90;;;;;;4997273;28;20015;-82
2023/01/18 15:53:31;;;;;;;;;;;4.60;99.90;;;;;;4998188;28;20063;-82
2023/01/18 15:55:58;;;;;;;;;;;4.60;99.90;;;;;;5014480;28;19997;-82
2023/01/18 15:58:27;;;;;;;;;;;4.50;99.90;;;;;;4997854;28;19909;-82
2023/01/18 16:00:54;;;;;;;;;;;4.40;99.90;;;;;;4997990;28;19913;-82
2023/01/18 16:03:40;;;;;;;;;;;4.30;99.90;;;;;;4997978;28;19916;-82
2023/01/18 16:06:16;;;;;;;;;;;4.20;99.90;;;;;;4974378;28;20326;-82
2023/01/18 16:08:55;;;;;;;;;;;4.20;99.90;;;;;;4997970;28;19920;-82
2023/01/18 16:11:25;;;;;;;;;;;4.10;99.90;;;;;;4997262;28;19992;-82
2023/01/18 16:13:55;;;;;;;;;;;4.00;99.90;;;;;;5015273;28;19910;-82
2023/01/18 16:16:22;;;;;;;;;;;3.90;99.90;;;;;;4998254;28;19913;-82
2023/01/18 16:18:49;;;;;;;;;;;3.90;99.90;;;;;;4998429;28;19916;-80
2023/01/18 16:21:39;;;;;;;;;;;3.80;99.90;;;;;;4997956;28;20003;-82
2023/01/18 16:24:15;;;;;;;;;;;3.80;99.90;;;;;;5004572;28;19913;-82
2023/01/18 16:26:41;;;;;;;;;;;3.80;99.90;;;;;;4998337;28;20260;-82
2023/01/18 16:29:07;;;;;;;;;;;3.70;99.90;;;;;;5016445;28;19909;-82
2023/01/18 16:31:34;;;;;;;;;;;3.70;99.90;;;;;;5018471;28;19910;-82
2023/01/18 16:34:00;;;;;;;;;;;3.60;99.90;;;;;;5000259;28;19917;-82
2023/01/18 16:36:25;;;;;;;;;;;3.60;99.90;;;;;;5016696;28;20368;-82
2023/01/18 16:38:51;;;;;;;;;;;3.50;99.90;;;;;;5016667;28;19914;-82
2023/01/18 16:41:16;;;;;;;;;;;3.40;99.90;;;;;;5016734;28;19924;-81
2023/01/18 16:43:42;;;;;;;;;;;3.40;99.90;;;;;;5000015;28;20283;-82
2023/01/18 16:46:08;;;;;;;;;;;3.30;99.90;;;;;;4999546;28;20004;-82
2023/01/18 16:48:35;;;;;;;;;;;3.20;99.90;;;;;;4998328;28;20379;-83
2023/01/18 16:51:02;;;;;;;;;;;3.20;99.90;;;;;;5017202;28;19916;-82
2023/01/18 16:53:28;;;;;;;;;;;3.20;99.90;;;;;;5016779;28;20379;-82
2023/01/18 16:55:55;;;;;;;;;;;3.10;99.90;;;;;;5016467;28;20390;-82
2023/01/18 16:58:22;;;;;;;;;;;3.10;99.90;;;;;;4998046;28;20418;-83
2023/01/18 17:00:48;;;;;;;;;;;3.00;99.90;;;;;;5017051;28;19952;-82
2023/01/18 17:03:14;;;;;;;;;;;3.00;99.90;;;;;;4998022;28;20359;-83
2023/01/18 17:05:40;;;;;;;;;;;2.90;99.90;;;;;;4997242;28;20020;-82
2023/01/18 17:08:05;;;;;;;;;;;2.80;99.90;;;;;;5011400;28;19964;-82
2023/01/18 17:10:35;;;;;;;;;;;2.80;99.90;;;;;;5017647;28;20049;-82
2023/01/18 17:13:00;;;;;;;;;;;2.80;99.90;;;;;;5034781;28;19909;-82
2023/01/18 17:15:28;;;;;;;;;;;2.80;99.90;;;;;;5035238;28;19909;-82
2023/01/18 17:17:54;;;;;;;;;;;2.70;99.90;;;;;;5017416;28;19924;-82
2023/01/18 17:20:21;;;;;;;;;;;2.70;99.90;;;;;;5015847;28;19910;-82
2023/01/18 17:22:47;;;;;;;;;;;2.60;99.90;;;;;;4997246;28;19916;-83
2023/01/18 17:25:13;;;;;;;;;;;2.60;99.90;;;;;;5015804;28;19910;-82
2023/01/18 17:27:38;;;;;;;;;;;2.60;99.90;;;;;;4997601;28;20280;-82
2023/01/18 17:30:04;;;;;;;;;;;2.60;99.90;;;;;;5015566;28;20346;-82
2023/01/18 17:32:30;;;;;;;;;;;2.60;99.90;;;;;;4997422;28;19975;-82
2023/01/18 17:34:56;;;;;;;;;;;2.50;99.90;;;;;;4997800;28;20283;-82
2023/01/18 17:37:21;;;;;;;;;;;2.60;99.90;;;;;;5015635;28;19924;-82
2023/01/18 17:39:47;;;;;;;;;;;2.60;99.90;;;;;;5016423;28;19916;-82
2023/01/18 17:42:12;;;;;;;;;;;2.50;99.90;;;;;;5015056;28;19913;-82
2023/01/18 17:44:38;;;;;;;;;;;2.50;99.90;;;;;;4997843;28;19945;-82
2023/01/18 17:47:03;;;;;;;;;;;2.50;99.90;;;;;;4998379;28;19909;-82
2023/01/18 17:49:29;;;;;;;;;;;2.50;99.90;;;;;;5015972;28;19909;-83
2023/01/18 17:51:54;;;;;;;;;;;2.50;99.90;;;;;;5013452;28;19935;-83
2023/01/18 17:54:20;;;;;;;;;;;2.50;99.90;;;;;;4996506;28;19917;-83
2023/01/18 17:56:45;;;;;;;;;;;2.50;99.90;;;;;;4996086;28;19913;-82
2023/01/18 17:59:11;;;;;;;;;;;2.50;99.90;;;;;;5014956;28;19914;-83
2023/01/18 18:01:36;;;;;;;;;;;2.50;99.90;;;;;;5014161;28;19914;-82
2023/01/18 18:04:01;;;;;;;;;;;2.50;99.90;;;;;;4996661;28;20282;-82
2023/01/18 18:06:31;;;;;;;;;;;2.50;99.90;;;;;;5014115;28;19964;-83
2023/01/18 18:08:57;;;;;;;;;;;2.50;99.90;;;;;;4996334;28;19910;-82
2023/01/18 18:11:23;;;;;;;;;;;2.50;99.90;;;;;;5013810;28;19916;-82
2023/01/18 18:13:48;;;;;;;;;;;2.50;99.90;;;;;;5013624;28;20363;-82
2023/01/18 18:16:14;;;;;;;;;;;2.50;99.90;;;;;;4995630;28;19917;-82
2023/01/18 18:18:40;;;;;;;;;;;2.50;99.90;;;;;;4995386;28;19920;-83
2023/01/18 18:21:06;;;;;;;;;;;2.50;99.90;;;;;;4995406;28;19909;-82
2023/01/18 18:23:31;;;;;;;;;;;2.50;99.90;;;;;;4995732;28;19913;-82
2023/01/18 18:25:57;;;;;;;;;;;2.50;99.90;;;;;;5013390;28;19909;-84
2023/01/18 18:28:23;;;;;;;;;;;2.50;99.90;;;;;;5013483;28;19910;-82
2023/01/18 18:30:50;;;;;;;;;;;2.50;99.90;;;;;;4995819;28;19917;-83
2023/01/18 18:33:16;;;;;;;;;;;2.50;99.90;;;;;;4995466;28;19917;-82
2023/01/18 18:35:42;;;;;;;;;;;2.50;99.90;;;;;;5013883;28;19949;-83
2023/01/18 18:38:07;;;;;;;;;;;2.60;99.90;;;;;;4995967;28;19963;-81
2023/01/18 18:40:33;;;;;;;;;;;2.50;99.90;;;;;;4995863;28;20319;-83
2023/01/18 18:42:58;;;;;;;;;;;2.50;99.90;;;;;;4996195;28;19909;-82
2023/01/18 18:45:23;;;;;;;;;;;2.50;99.90;;;;;;4997307;28;19909;-83
2023/01/18 18:47:49;;;;;;;;;;;2.50;99.90;;;;;;5014812;28;20012;-82
2023/01/18 18:50:15;;;;;;;;;;;2.50;99.90;;;;;;5015044;28;19972;-83
2023/01/18 18:52:41;;;;;;;;;;;2.60;99.90;;;;;;4996850;28;20385;-82